sensor_id;sensor_type;location;lat;lon;timestamp;temperature;humidity
10083;DHT22;5080;48.528;8.078;2022-07-29T00:01:32;24.80;99.90
10083;DHT22;5080;48.528;8.078;2022-07-29T00:03:59;24.80;99.90
10083;DHT22;5080;48.528;8.078;2022-07-29T00:06:26;24.80;99.90
10083;DHT22;5080;48.528;8.078;2022-07-29T00:08:53;24.80;99.90
10083;DHT22;5080;48.528;8.078;2022-07-29T00:11:21;24.80;99.90
10083;DHT22;5080;48.528;8.078;2022-07-29T00:13:48;24.80;99.90
10083;DHT22;5080;48.528;8.078;2022-07-29T00:16:15;24.70;99.90
10083;DHT22;5080;48.528;8.078;2022-07-29T00:18:41;24.70;99.90
10083;DHT22;5080;48.528;8.078;2022-07-29T00:21:08;24.70;99.90
10083;DHT22;5080;48.528;8.078;2022-07-29T00:23:35;24.60;99.90
10083;DHT22;5080;48.528;8.078;2022-07-29T00:26:02;24.60;99.90
10083;DHT22;5080;48.528;8.078;2022-07-29T00:28:30;24.50;99.90
10083;DHT22;5080;48.528;8.078;2022-07-29T00:30:57;24.50;99.90
10083;DHT22;5080;48.528;8.078;2022-07-29T00:33:24;24.50;99.90
10083;DHT22;5080;48.528;8.078;2022-07-29T00:35:51;24.50;99.90
10083;DHT22;5080;48.528;8.078;2022-07-29T00:38:18;24.50;99.90
10083;DHT22;5080;48.528;8.078;2022-07-29T00:40:46;24.50;99.90
10083;DHT22;5080;48.528;8.078;2022-07-29T00:43:14;24.40;99.90
10083;DHT22;5080;48.528;8.078;2022-07-29T00:45:42;24.40;99.90
10083;DHT22;5080;48.528;8.078;2022-07-29T00:48:09;24.30;99.90
10083;DHT22;5080;48.528;8.078;2022-07-29T00:50:37;24.30;99.90
10083;DHT22;5080;48.528;8.078;2022-07-29T00:53:06;24.20;99.90
10083;DHT22;5080;48.528;8.078;2022-07-29T00:55:33;24.20;99.90
10083;DHT22;5080;48.528;8.078;2022-07-29T00:58:00;24.20;99.90
10083;DHT22;5080;48.528;8.078;2022-07-29T01:00:28;24.10;99.90
10083;DHT22;5080;48.528;8.078;2022-07-29T01:02:56;24.10;99.90
10083;DHT22;5080;48.528;8.078;2022-07-29T01:05:26;24.00;99.90
10083;DHT22;5080;48.528;8.078;2022-07-29T01:07:54;24.00;99.90
10083;DHT22;5080;48.528;8.078;2022-07-29T01:10:22;24.00;99.90
10083;DHT22;5080;48.528;8.078;2022-07-29T01:12:51;23.90;99.90
10083;DHT22;5080;48.528;8.078;2022-07-29T01:15:19;23.80;99.90
10083;DHT22;5080;48.528;8.078;2022-07-29T01:17:51;23.70;99.90
10083;DHT22;5080;48.528;8.078;2022-07-29T01:20:25;23.60;99.90
10083;DHT22;5080;48.528;8.078;2022-07-29T01:23:40;23.60;99.90
10083;DHT22;5080;48.528;8.078;2022-07-29T01:26:31;23.50;99.90
10083;DHT22;5080;48.528;8.078;2022-07-29T01:29:06;23.50;99.90
10083;DHT22;5080;48.528;8.078;2022-07-29T01:31:42;23.30;99.90
10083;DHT22;5080;48.528;8.078;2022-07-29T01:34:20;23.30;99.90
10083;DHT22;5080;48.528;8.078;2022-07-29T01:36:50;23.20;99.90
10083;DHT22;5080;48.528;8.078;2022-07-29T01:39:21;23.20;99.90
10083;DHT22;5080;48.528;8.078;2022-07-29T01:41:57;23.10;99.90
10083;DHT22;5080;48.528;8.078;2022-07-29T01:44:31;23.10;99.90
10083;DHT22;5080;48.528;8.078;2022-07-29T01:47:10;23.00;99.90
10083;DHT22;5080;48.528;8.078;2022-07-29T01:49:42;22.90;99.90
10083;DHT22;5080;48.528;8.078;2022-07-29T01:52:15;22.90;99.90
10083;DHT22;5080;48.528;8.078;2022-07-29T01:54:48;22.80;99.90
10083;DHT22;5080;48.528;8.078;2022-07-29T01:57:18;22.80;99.90
10083;DHT22;5080;48.528;8.078;2022-07-29T01:59:48;22.70;99.90
10083;DHT22;5080;48.528;8.078;2022-07-29T02:02:18;22.70;99.90
10083;DHT22;5080;48.528;8.078;2022-07-29T02:04:46;22.60;99.90
10083;DHT22;5080;48.528;8.078;2022-07-29T02:07:18;22.60;99.90
10083;DHT22;5080;48.528;8.078;2022-07-29T02:09:46;22.60;99.90
10083;DHT22;5080;48.528;8.078;2022-07-29T02:12:15;22.50;99.90
10083;DHT22;5080;48.528;8.078;2022-07-29T02:14:45;22.50;99.90
10083;DHT22;5080;48.528;8.078;2022-07-29T02:17:21;22.40;99.90
10083;DHT22;5080;48.528;8.078;2022-07-29T02:19:49;22.40;99.90
10083;DHT22;5080;48.528;8.078;2022-07-29T02:22:18;22.30;99.90
10083;DHT22;5080;48.528;8.078;2022-07-29T02:24:46;22.30;99.90
10083;DHT22;5080;48.528;8.078;2022-07-29T02:27:14;22.20;99.90
10083;DHT22;5080;48.528;8.078;2022-07-29T02:29:42;22.10;99.90
10083;DHT22;5080;48.528;8.078;2022-07-29T02:32:11;22.00;99.90
10083;DHT22;5080;48.528;8.078;2022-07-29T02:34:41;22.00;99.90
10083;DHT22;5080;48.528;8.078;2022-07-29T02:37:10;22.00;99.90
10083;DHT22;5080;48.528;8.078;2022-07-29T02:39:39;21.90;99.90
10083;DHT22;5080;48.528;8.078;2022-07-29T02:42:11;21.80;99.90
10083;DHT22;5080;48.528;8.078;2022-07-29T02:44:39;21.80;99.90
10083;DHT22;5080;48.528;8.078;2022-07-29T02:47:10;21.70;99.90
10083;DHT22;5080;48.528;8.078;2022-07-29T02:49:47;21.70;99.90
10083;DHT22;5080;48.528;8.078;2022-07-29T02:52:21;21.70;99.90
10083;DHT22;5080;48.528;8.078;2022-07-29T02:54:53;21.70;99.90
10083;DHT22;5080;48.528;8.078;2022-07-29T02:57:26;21.70;99.90
10083;DHT22;5080;48.528;8.078;2022-07-29T02:59:57;21.60;99.90
10083;DHT22;5080;48.528;8.078;2022-07-29T03:02:25;21.60;99.90
10083;DHT22;5080;48.528;8.078;2022-07-29T03:04:55;21.60;99.90
10083;DHT22;5080;48.528;8.078;2022-07-29T03:07:23;21.70;99.90
10083;DHT22;5080;48.528;8.078;2022-07-29T03:09:51;21.70;99.90
10083;DHT22;5080;48.528;8.078;2022-07-29T03:12:19;21.60;99.90
10083;DHT22;5080;48.528;8.078;2022-07-29T03:14:47;21.50;99.90
10083;DHT22;5080;48.528;8.078;2022-07-29T03:17:15;21.40;99.90
10083;DHT22;5080;48.528;8.078;2022-07-29T03:19:42;21.40;99.90
10083;DHT22;5080;48.528;8.078;2022-07-29T03:22:10;21.30;99.90
10083;DHT22;5080;48.528;8.078;2022-07-29T03:24:38;21.30;99.90
10083;DHT22;5080;48.528;8.078;2022-07-29T03:27:05;21.30;99.90
10083;DHT22;5080;48.528;8.078;2022-07-29T03:29:32;21.20;99.90
10083;DHT22;5080;48.528;8.078;2022-07-29T03:31:59;21.20;99.90
10083;DHT22;5080;48.528;8.078;2022-07-29T03:34:26;21.20;99.90
10083;DHT22;5080;48.528;8.078;2022-07-29T03:36:52;21.10;99.90
10083;DHT22;5080;48.528;8.078;2022-07-29T03:39:25;21.10;99.90
10083;DHT22;5080;48.528;8.078;2022-07-29T03:41:55;21.10;99.90
10083;DHT22;5080;48.528;8.078;2022-07-29T03:44:22;21.10;99.90
10083;DHT22;5080;48.528;8.078;2022-07-29T03:46:51;21.00;99.90
10083;DHT22;5080;48.528;8.078;2022-07-29T03:49:22;21.00;99.90
10083;DHT22;5080;48.528;8.078;2022-07-29T03:51:50;21.00;99.90
10083;DHT22;5080;48.528;8.078;2022-07-29T03:54:17;21.20;99.90
10083;DHT22;5080;48.528;8.078;2022-07-29T03:56:46;21.30;99.90
10083;DHT22;5080;48.528;8.078;2022-07-29T03:59:15;21.40;99.90
10083;DHT22;5080;48.528;8.078;2022-07-29T04:01:45;21.50;99.90
10083;DHT22;5080;48.528;8.078;2022-07-29T04:04:12;21.50;99.90
10083;DHT22;5080;48.528;8.078;2022-07-29T04:06:40;21.60;99.90
10083;DHT22;5080;48.528;8.078;2022-07-29T04:09:07;21.60;99.90
10083;DHT22;5080;48.528;8.078;2022-07-29T04:11:35;21.40;99.90
10083;DHT22;5080;48.528;8.078;2022-07-29T04:14:04;21.50;99.90
10083;DHT22;5080;48.528;8.078;2022-07-29T04:16:32;21.40;99.90
10083;DHT22;5080;48.528;8.078;2022-07-29T04:18:59;21.40;99.90
10083;DHT22;5080;48.528;8.078;2022-07-29T04:21:26;21.40;99.90
10083;DHT22;5080;48.528;8.078;2022-07-29T04:23:53;21.30;99.90
10083;DHT22;5080;48.528;8.078;2022-07-29T04:26:20;21.30;99.90
10083;DHT22;5080;48.528;8.078;2022-07-29T04:28:47;21.20;99.90
10083;DHT22;5080;48.528;8.078;2022-07-29T04:31:15;21.10;99.90
10083;DHT22;5080;48.528;8.078;2022-07-29T04:33:42;21.20;99.90
10083;DHT22;5080;48.528;8.078;2022-07-29T04:36:09;21.20;99.90
10083;DHT22;5080;48.528;8.078;2022-07-29T04:38:37;21.20;99.90
10083;DHT22;5080;48.528;8.078;2022-07-29T04:41:04;21.20;99.90
10083;DHT22;5080;48.528;8.078;2022-07-29T04:43:32;21.30;99.90
10083;DHT22;5080;48.528;8.078;2022-07-29T04:45:59;21.40;99.90
10083;DHT22;5080;48.528;8.078;2022-07-29T04:48:27;21.60;99.90
10083;DHT22;5080;48.528;8.078;2022-07-29T04:50:54;21.60;99.90
10083;DHT22;5080;48.528;8.078;2022-07-29T04:53:21;21.70;99.90
10083;DHT22;5080;48.528;8.078;2022-07-29T04:55:48;21.70;99.90
10083;DHT22;5080;48.528;8.078;2022-07-29T04:58:15;21.60;99.90
10083;DHT22;5080;48.528;8.078;2022-07-29T05:00:42;21.60;99.90
10083;DHT22;5080;48.528;8.078;2022-07-29T05:03:09;21.60;99.90
10083;DHT22;5080;48.528;8.078;2022-07-29T05:05:37;21.70;99.90
10083;DHT22;5080;48.528;8.078;2022-07-29T05:08:05;21.60;99.90
10083;DHT22;5080;48.528;8.078;2022-07-29T05:10:31;21.60;99.90
10083;DHT22;5080;48.528;8.078;2022-07-29T05:13:01;21.60;99.90
10083;DHT22;5080;48.528;8.078;2022-07-29T05:15:28;21.50;99.90
10083;DHT22;5080;48.528;8.078;2022-07-29T05:17:54;21.50;99.90
10083;DHT22;5080;48.528;8.078;2022-07-29T05:20:22;21.60;99.90
10083;DHT22;5080;48.528;8.078;2022-07-29T05:22:53;21.70;99.90
10083;DHT22;5080;48.528;8.078;2022-07-29T05:25:20;21.70;99.90
10083;DHT22;5080;48.528;8.078;2022-07-29T05:27:47;21.80;99.90
10083;DHT22;5080;48.528;8.078;2022-07-29T05:30:14;21.80;99.90
10083;DHT22;5080;48.528;8.078;2022-07-29T05:32:41;21.80;99.90
10083;DHT22;5080;48.528;8.078;2022-07-29T05:35:08;21.80;99.90
10083;DHT22;5080;48.528;8.078;2022-07-29T05:37:35;21.80;99.90
10083;DHT22;5080;48.528;8.078;2022-07-29T05:40:04;21.80;99.90
10083;DHT22;5080;48.528;8.078;2022-07-29T05:42:31;21.80;99.90
10083;DHT22;5080;48.528;8.078;2022-07-29T05:44:59;21.80;99.90
10083;DHT22;5080;48.528;8.078;2022-07-29T05:47:26;21.90;99.90
10083;DHT22;5080;48.528;8.078;2022-07-29T05:49:53;21.90;99.90
10083;DHT22;5080;48.528;8.078;2022-07-29T05:52:20;21.90;99.90
10083;DHT22;5080;48.528;8.078;2022-07-29T05:54:47;22.10;99.90
10083;DHT22;5080;48.528;8.078;2022-07-29T05:57:19;22.20;99.90
10083;DHT22;5080;48.528;8.078;2022-07-29T05:59:47;22.40;99.90
10083;DHT22;5080;48.528;8.078;2022-07-29T06:02:14;22.40;99.90
10083;DHT22;5080;48.528;8.078;2022-07-29T06:04:41;22.50;99.90
10083;DHT22;5080;48.528;8.078;2022-07-29T06:07:08;22.70;99.90
10083;DHT22;5080;48.528;8.078;2022-07-29T06:09:35;22.90;99.90
10083;DHT22;5080;48.528;8.078;2022-07-29T06:12:02;23.10;99.90
10083;DHT22;5080;48.528;8.078;2022-07-29T06:14:31;23.20;99.90
10083;DHT22;5080;48.528;8.078;2022-07-29T06:16:58;23.20;99.90
10083;DHT22;5080;48.528;8.078;2022-07-29T06:19:25;23.20;99.90
10083;DHT22;5080;48.528;8.078;2022-07-29T06:21:52;23.30;99.90
10083;DHT22;5080;48.528;8.078;2022-07-29T06:24:19;23.50;99.90
10083;DHT22;5080;48.528;8.078;2022-07-29T06:26:46;23.70;99.90
10083;DHT22;5080;48.528;8.078;2022-07-29T06:29:13;23.80;99.90
10083;DHT22;5080;48.528;8.078;2022-07-29T06:31:42;23.90;99.90
10083;DHT22;5080;48.528;8.078;2022-07-29T06:34:09;24.00;99.90
10083;DHT22;5080;48.528;8.078;2022-07-29T06:36:37;24.10;99.90
10083;DHT22;5080;48.528;8.078;2022-07-29T06:39:04;23.90;99.90
10083;DHT22;5080;48.528;8.078;2022-07-29T06:41:32;23.90;99.90
10083;DHT22;5080;48.528;8.078;2022-07-29T06:43:59;24.20;99.90
10083;DHT22;5080;48.528;8.078;2022-07-29T06:46:26;24.30;99.90
10083;DHT22;5080;48.528;8.078;2022-07-29T06:48:55;24.30;99.90
10083;DHT22;5080;48.528;8.078;2022-07-29T06:51:22;24.30;99.90
10083;DHT22;5080;48.528;8.078;2022-07-29T06:53:49;24.20;99.90
10083;DHT22;5080;48.528;8.078;2022-07-29T06:56:16;24.30;99.90
10083;DHT22;5080;48.528;8.078;2022-07-29T06:58:43;24.40;99.90
10083;DHT22;5080;48.528;8.078;2022-07-29T07:01:10;24.50;99.90
10083;DHT22;5080;48.528;8.078;2022-07-29T07:03:37;24.50;99.90
10083;DHT22;5080;48.528;8.078;2022-07-29T07:06:05;24.60;99.90
10083;DHT22;5080;48.528;8.078;2022-07-29T07:08:32;24.60;99.90
10083;DHT22;5080;48.528;8.078;2022-07-29T07:10:59;24.70;99.90
10083;DHT22;5080;48.528;8.078;2022-07-29T07:13:26;24.70;99.90
10083;DHT22;5080;48.528;8.078;2022-07-29T07:15:53;24.90;99.90
10083;DHT22;5080;48.528;8.078;2022-07-29T07:18:20;25.00;99.90
10083;DHT22;5080;48.528;8.078;2022-07-29T07:20:47;25.00;99.90
10083;DHT22;5080;48.528;8.078;2022-07-29T07:23:15;25.00;99.90
10083;DHT22;5080;48.528;8.078;2022-07-29T07:25:42;25.00;99.90
10083;DHT22;5080;48.528;8.078;2022-07-29T07:28:09;25.00;99.90
10083;DHT22;5080;48.528;8.078;2022-07-29T07:30:36;25.00;99.90
10083;DHT22;5080;48.528;8.078;2022-07-29T07:33:03;25.00;99.90
10083;DHT22;5080;48.528;8.078;2022-07-29T07:35:30;25.00;99.90
10083;DHT22;5080;48.528;8.078;2022-07-29T07:37:57;25.00;99.90
10083;DHT22;5080;48.528;8.078;2022-07-29T07:40:26;25.00;99.90
10083;DHT22;5080;48.528;8.078;2022-07-29T07:42:53;25.00;99.90
10083;DHT22;5080;48.528;8.078;2022-07-29T07:45:20;25.00;99.90
10083;DHT22;5080;48.528;8.078;2022-07-29T07:47:47;25.00;99.90
10083;DHT22;5080;48.528;8.078;2022-07-29T07:50:13;25.00;99.90
10083;DHT22;5080;48.528;8.078;2022-07-29T07:52:47;25.00;99.90
10083;DHT22;5080;48.528;8.078;2022-07-29T07:55:14;25.10;99.90
10083;DHT22;5080;48.528;8.078;2022-07-29T07:57:43;25.10;99.90
10083;DHT22;5080;48.528;8.078;2022-07-29T08:00:11;25.20;99.90
10083;DHT22;5080;48.528;8.078;2022-07-29T08:02:38;25.40;99.90
10083;DHT22;5080;48.528;8.078;2022-07-29T08:05:06;25.70;99.90
10083;DHT22;5080;48.528;8.078;2022-07-29T08:07:34;25.90;99.90
10083;DHT22;5080;48.528;8.078;2022-07-29T08:10:01;25.80;99.90
10083;DHT22;5080;48.528;8.078;2022-07-29T08:12:28;26.00;99.90
10083;DHT22;5080;48.528;8.078;2022-07-29T08:14:57;26.00;99.90
10083;DHT22;5080;48.528;8.078;2022-07-29T08:17:23;26.10;99.90
10083;DHT22;5080;48.528;8.078;2022-07-29T08:19:52;26.40;99.90
10083;DHT22;5080;48.528;8.078;2022-07-29T08:22:18;26.50;99.90
10083;DHT22;5080;48.528;8.078;2022-07-29T08:24:45;26.50;99.90
10083;DHT22;5080;48.528;8.078;2022-07-29T08:27:18;26.50;99.90
10083;DHT22;5080;48.528;8.078;2022-07-29T08:29:45;26.50;99.90
10083;DHT22;5080;48.528;8.078;2022-07-29T08:32:14;26.60;99.90
10083;DHT22;5080;48.528;8.078;2022-07-29T08:34:40;26.80;99.90
10083;DHT22;5080;48.528;8.078;2022-07-29T08:37:07;27.00;99.90
10083;DHT22;5080;48.528;8.078;2022-07-29T08:39:34;26.70;99.90
10083;DHT22;5080;48.528;8.078;2022-07-29T08:42:01;26.60;99.90
10083;DHT22;5080;48.528;8.078;2022-07-29T08:44:29;26.40;99.90
10083;DHT22;5080;48.528;8.078;2022-07-29T08:46:56;26.20;99.90
10083;DHT22;5080;48.528;8.078;2022-07-29T08:49:24;26.20;99.90
10083;DHT22;5080;48.528;8.078;2022-07-29T08:51:51;26.30;99.90
10083;DHT22;5080;48.528;8.078;2022-07-29T08:54:20;26.70;99.90
10083;DHT22;5080;48.528;8.078;2022-07-29T08:56:48;27.00;99.90
10083;DHT22;5080;48.528;8.078;2022-07-29T08:59:19;27.20;99.90
10083;DHT22;5080;48.528;8.078;2022-07-29T09:01:46;27.50;99.90
10083;DHT22;5080;48.528;8.078;2022-07-29T09:04:15;27.50;99.90
10083;DHT22;5080;48.528;8.078;2022-07-29T09:06:46;27.50;99.90
10083;DHT22;5080;48.528;8.078;2022-07-29T09:09:14;27.40;99.90
10083;DHT22;5080;48.528;8.078;2022-07-29T09:11:42;27.40;99.90
10083;DHT22;5080;48.528;8.078;2022-07-29T09:14:12;27.20;99.90
10083;DHT22;5080;48.528;8.078;2022-07-29T09:16:55;27.20;99.90
10083;DHT22;5080;48.528;8.078;2022-07-29T09:19:24;27.40;99.90
10083;DHT22;5080;48.528;8.078;2022-07-29T09:21:54;27.30;99.90
10083;DHT22;5080;48.528;8.078;2022-07-29T09:24:25;27.20;99.90
10083;DHT22;5080;48.528;8.078;2022-07-29T09:26:52;27.20;99.90
10083;DHT22;5080;48.528;8.078;2022-07-29T09:29:22;27.40;99.90
10083;DHT22;5080;48.528;8.078;2022-07-29T09:31:51;27.50;99.90
10083;DHT22;5080;48.528;8.078;2022-07-29T09:34:22;27.50;99.90
10083;DHT22;5080;48.528;8.078;2022-07-29T09:36:50;27.50;99.90
10083;DHT22;5080;48.528;8.078;2022-07-29T09:39:29;27.50;99.90
10083;DHT22;5080;48.528;8.078;2022-07-29T09:41:57;27.20;99.90
10083;DHT22;5080;48.528;8.078;2022-07-29T09:44:25;27.20;99.90
10083;DHT22;5080;48.528;8.078;2022-07-29T09:46:56;27.30;99.90
10083;DHT22;5080;48.528;8.078;2022-07-29T09:49:24;27.60;99.90
10083;DHT22;5080;48.528;8.078;2022-07-29T09:52:04;27.70;99.90
10083;DHT22;5080;48.528;8.078;2022-07-29T09:54:33;27.80;99.90
10083;DHT22;5080;48.528;8.078;2022-07-29T09:57:03;27.90;99.90
10083;DHT22;5080;48.528;8.078;2022-07-29T09:59:31;27.90;99.90
10083;DHT22;5080;48.528;8.078;2022-07-29T10:01:58;28.10;99.90
10083;DHT22;5080;48.528;8.078;2022-07-29T10:04:37;28.10;99.90
10083;DHT22;5080;48.528;8.078;2022-07-29T10:07:04;28.50;99.90
10083;DHT22;5080;48.528;8.078;2022-07-29T10:09:33;28.50;99.90
10083;DHT22;5080;48.528;8.078;2022-07-29T10:12:05;28.50;99.90
10083;DHT22;5080;48.528;8.078;2022-07-29T10:14:34;28.20;99.90
10083;DHT22;5080;48.528;8.078;2022-07-29T10:17:01;28.40;99.90
10083;DHT22;5080;48.528;8.078;2022-07-29T10:19:30;28.50;99.90
10083;DHT22;5080;48.528;8.078;2022-07-29T10:21:58;28.70;99.90
10083;DHT22;5080;48.528;8.078;2022-07-29T10:24:26;28.60;99.90
10083;DHT22;5080;48.528;8.078;2022-07-29T10:26:56;28.40;99.90
10083;DHT22;5080;48.528;8.078;2022-07-29T10:29:24;28.30;99.90
10083;DHT22;5080;48.528;8.078;2022-07-29T10:32:02;28.30;99.90
10083;DHT22;5080;48.528;8.078;2022-07-29T10:34:44;28.30;99.90
10083;DHT22;5080;48.528;8.078;2022-07-29T10:37:23;28.70;99.90
10083;DHT22;5080;48.528;8.078;2022-07-29T10:40:00;28.90;99.90
10083;DHT22;5080;48.528;8.078;2022-07-29T10:42:55;29.10;99.90
10083;DHT22;5080;48.528;8.078;2022-07-29T10:45:26;29.20;99.90
10083;DHT22;5080;48.528;8.078;2022-07-29T10:48:03;29.30;99.90
10083;DHT22;5080;48.528;8.078;2022-07-29T10:50:52;29.70;99.90
10083;DHT22;5080;48.528;8.078;2022-07-29T10:53:19;29.90;99.90
10083;DHT22;5080;48.528;8.078;2022-07-29T10:55:46;30.20;99.90
10083;DHT22;5080;48.528;8.078;2022-07-29T10:58:19;30.20;99.90
10083;DHT22;5080;48.528;8.078;2022-07-29T11:00:47;30.40;99.90
10083;DHT22;5080;48.528;8.078;2022-07-29T11:03:47;30.50;99.90
10083;DHT22;5080;48.528;8.078;2022-07-29T11:06:18;30.80;99.90
10083;DHT22;5080;48.528;8.078;2022-07-29T11:08:46;30.80;99.90
10083;DHT22;5080;48.528;8.078;2022-07-29T11:11:32;31.00;99.90
10083;DHT22;5080;48.528;8.078;2022-07-29T11:14:01;30.80;99.90
10083;DHT22;5080;48.528;8.078;2022-07-29T11:17:00;30.60;99.90
10083;DHT22;5080;48.528;8.078;2022-07-29T11:19:29;30.70;99.90
10083;DHT22;5080;48.528;8.078;2022-07-29T11:21:56;30.50;99.90
10083;DHT22;5080;48.528;8.078;2022-07-29T11:24:26;30.30;99.90
10083;DHT22;5080;48.528;8.078;2022-07-29T11:27:11;30.10;99.90
10083;DHT22;5080;48.528;8.078;2022-07-29T11:29:48;30.00;99.90
10083;DHT22;5080;48.528;8.078;2022-07-29T11:32:17;30.00;99.90
10083;DHT22;5080;48.528;8.078;2022-07-29T11:34:45;29.90;99.90
10083;DHT22;5080;48.528;8.078;2022-07-29T11:37:31;29.80;99.90
10083;DHT22;5080;48.528;8.078;2022-07-29T11:40:17;29.70;99.90
10083;DHT22;5080;48.528;8.078;2022-07-29T11:42:51;29.60;99.90
10083;DHT22;5080;48.528;8.078;2022-07-29T11:45:25;29.50;99.90
10083;DHT22;5080;48.528;8.078;2022-07-29T11:47:58;29.50;99.90
10083;DHT22;5080;48.528;8.078;2022-07-29T11:50:32;29.50;99.90
10083;DHT22;5080;48.528;8.078;2022-07-29T11:53:00;29.50;99.90
10083;DHT22;5080;48.528;8.078;2022-07-29T11:55:28;29.60;99.90
10083;DHT22;5080;48.528;8.078;2022-07-29T11:57:57;29.50;99.90
10083;DHT22;5080;48.528;8.078;2022-07-29T12:00:29;29.50;99.90
10083;DHT22;5080;48.528;8.078;2022-07-29T12:02:58;29.50;99.90
10083;DHT22;5080;48.528;8.078;2022-07-29T12:05:36;29.30;99.90
10083;DHT22;5080;48.528;8.078;2022-07-29T12:08:09;29.20;99.90
10083;DHT22;5080;48.528;8.078;2022-07-29T12:10:36;29.20;99.90
10083;DHT22;5080;48.528;8.078;2022-07-29T12:13:04;29.20;99.90
10083;DHT22;5080;48.528;8.078;2022-07-29T12:15:32;29.30;99.90
10083;DHT22;5080;48.528;8.078;2022-07-29T12:18:13;29.30;99.90
10083;DHT22;5080;48.528;8.078;2022-07-29T12:20:40;29.20;99.90
10083;DHT22;5080;48.528;8.078;2022-07-29T12:23:07;29.20;99.90
10083;DHT22;5080;48.528;8.078;2022-07-29T12:25:37;29.30;99.90
10083;DHT22;5080;48.528;8.078;2022-07-29T12:28:06;29.30;99.90
10083;DHT22;5080;48.528;8.078;2022-07-29T12:30:37;29.30;99.90
10083;DHT22;5080;48.528;8.078;2022-07-29T12:33:20;29.20;99.90
10083;DHT22;5080;48.528;8.078;2022-07-29T12:35:49;29.10;99.90
10083;DHT22;5080;48.528;8.078;2022-07-29T12:38:17;29.10;99.90
10083;DHT22;5080;48.528;8.078;2022-07-29T12:40:45;29.10;99.90
10083;DHT22;5080;48.528;8.078;2022-07-29T12:43:14;29.20;99.90
10083;DHT22;5080;48.528;8.078;2022-07-29T12:45:43;29.20;99.90
10083;DHT22;5080;48.528;8.078;2022-07-29T12:48:11;29.30;99.90
10083;DHT22;5080;48.528;8.078;2022-07-29T12:50:53;29.30;99.90
10083;DHT22;5080;48.528;8.078;2022-07-29T12:53:20;29.30;99.90
10083;DHT22;5080;48.528;8.078;2022-07-29T12:55:49;29.30;99.90
10083;DHT22;5080;48.528;8.078;2022-07-29T12:58:30;29.40;99.90
10083;DHT22;5080;48.528;8.078;2022-07-29T13:01:17;29.40;99.90
10083;DHT22;5080;48.528;8.078;2022-07-29T13:03:51;29.50;99.90
10083;DHT22;5080;48.528;8.078;2022-07-29T13:06:28;29.60;99.90
10083;DHT22;5080;48.528;8.078;2022-07-29T13:09:00;29.70;99.90
10083;DHT22;5080;48.528;8.078;2022-07-29T13:11:28;29.70;99.90
10083;DHT22;5080;48.528;8.078;2022-07-29T13:13:55;29.80;99.90
10083;DHT22;5080;48.528;8.078;2022-07-29T13:16:24;29.70;99.90
10083;DHT22;5080;48.528;8.078;2022-07-29T13:19:07;29.80;99.90
10083;DHT22;5080;48.528;8.078;2022-07-29T13:21:35;29.80;99.90
10083;DHT22;5080;48.528;8.078;2022-07-29T13:24:02;29.60;99.90
10083;DHT22;5080;48.528;8.078;2022-07-29T13:26:29;29.60;99.90
10083;DHT22;5080;48.528;8.078;2022-07-29T13:28:56;29.60;99.90
10083;DHT22;5080;48.528;8.078;2022-07-29T13:31:24;29.70;99.90
10083;DHT22;5080;48.528;8.078;2022-07-29T13:33:51;29.70;99.90
10083;DHT22;5080;48.528;8.078;2022-07-29T13:36:18;29.80;99.90
10083;DHT22;5080;48.528;8.078;2022-07-29T13:38:45;29.80;99.90
10083;DHT22;5080;48.528;8.078;2022-07-29T13:41:12;29.80;99.90
10083;DHT22;5080;48.528;8.078;2022-07-29T13:43:39;29.90;99.90
10083;DHT22;5080;48.528;8.078;2022-07-29T13:46:06;29.90;99.90
10083;DHT22;5080;48.528;8.078;2022-07-29T13:48:35;30.10;99.90
10083;DHT22;5080;48.528;8.078;2022-07-29T13:51:02;30.00;99.90
10083;DHT22;5080;48.528;8.078;2022-07-29T13:53:28;30.00;99.90
10083;DHT22;5080;48.528;8.078;2022-07-29T13:55:55;30.00;99.90
10083;DHT22;5080;48.528;8.078;2022-07-29T13:58:22;30.00;99.90
10083;DHT22;5080;48.528;8.078;2022-07-29T14:00:49;30.00;99.90
10083;DHT22;5080;48.528;8.078;2022-07-29T14:03:16;29.80;99.90
10083;DHT22;5080;48.528;8.078;2022-07-29T14:05:44;29.70;99.90
10083;DHT22;5080;48.528;8.078;2022-07-29T14:08:11;29.80;99.90
10083;DHT22;5080;48.528;8.078;2022-07-29T14:10:38;29.80;99.90
10083;DHT22;5080;48.528;8.078;2022-07-29T14:13:05;29.80;99.90
10083;DHT22;5080;48.528;8.078;2022-07-29T14:15:32;29.90;99.90
10083;DHT22;5080;48.528;8.078;2022-07-29T14:17:59;29.80;99.90
10083;DHT22;5080;48.528;8.078;2022-07-29T14:20:26;29.80;99.90
10083;DHT22;5080;48.528;8.078;2022-07-29T14:22:56;29.80;99.90
10083;DHT22;5080;48.528;8.078;2022-07-29T14:25:23;29.90;99.90
10083;DHT22;5080;48.528;8.078;2022-07-29T14:27:50;30.00;99.90
10083;DHT22;5080;48.528;8.078;2022-07-29T14:30:18;29.90;99.90
10083;DHT22;5080;48.528;8.078;2022-07-29T14:32:45;29.70;99.90
10083;DHT22;5080;48.528;8.078;2022-07-29T14:35:12;29.70;99.90
10083;DHT22;5080;48.528;8.078;2022-07-29T14:37:39;29.70;99.90
10083;DHT22;5080;48.528;8.078;2022-07-29T14:40:08;29.70;99.90
10083;DHT22;5080;48.528;8.078;2022-07-29T14:42:35;29.70;99.90
10083;DHT22;5080;48.528;8.078;2022-07-29T14:45:03;29.80;99.90
10083;DHT22;5080;48.528;8.078;2022-07-29T14:47:31;29.80;99.90
10083;DHT22;5080;48.528;8.078;2022-07-29T14:49:57;29.80;99.90
10083;DHT22;5080;48.528;8.078;2022-07-29T14:52:24;29.70;99.90
10083;DHT22;5080;48.528;8.078;2022-07-29T14:54:51;29.70;99.90
10083;DHT22;5080;48.528;8.078;2022-07-29T14:57:20;29.60;99.90
10083;DHT22;5080;48.528;8.078;2022-07-29T14:59:46;29.60;99.90
10083;DHT22;5080;48.528;8.078;2022-07-29T15:02:13;29.70;99.90
10083;DHT22;5080;48.528;8.078;2022-07-29T15:04:40;29.70;99.90
10083;DHT22;5080;48.528;8.078;2022-07-29T15:07:07;29.60;99.90
10083;DHT22;5080;48.528;8.078;2022-07-29T15:09:34;29.70;99.90
10083;DHT22;5080;48.528;8.078;2022-07-29T15:12:01;29.70;99.90
10083;DHT22;5080;48.528;8.078;2022-07-29T15:14:31;29.80;99.90
10083;DHT22;5080;48.528;8.078;2022-07-29T15:16:58;29.80;99.90
10083;DHT22;5080;48.528;8.078;2022-07-29T15:19:25;29.90;99.90
10083;DHT22;5080;48.528;8.078;2022-07-29T15:21:52;30.00;99.90
10083;DHT22;5080;48.528;8.078;2022-07-29T15:24:19;30.00;99.90
10083;DHT22;5080;48.528;8.078;2022-07-29T15:26:47;29.90;99.90
10083;DHT22;5080;48.528;8.078;2022-07-29T15:29:14;29.80;99.90
10083;DHT22;5080;48.528;8.078;2022-07-29T15:31:43;29.70;99.90
10083;DHT22;5080;48.528;8.078;2022-07-29T15:34:10;29.50;99.90
10083;DHT22;5080;48.528;8.078;2022-07-29T15:36:37;29.50;99.90
10083;DHT22;5080;48.528;8.078;2022-07-29T15:39:04;29.60;99.90
10083;DHT22;5080;48.528;8.078;2022-07-29T15:41:31;29.70;99.90
10083;DHT22;5080;48.528;8.078;2022-07-29T15:43:58;29.70;99.90
10083;DHT22;5080;48.528;8.078;2022-07-29T15:46:25;29.80;99.90
10083;DHT22;5080;48.528;8.078;2022-07-29T15:49:10;29.90;99.90
10083;DHT22;5080;48.528;8.078;2022-07-29T15:51:37;30.00;99.90
10083;DHT22;5080;48.528;8.078;2022-07-29T15:54:04;30.00;99.90
10083;DHT22;5080;48.528;8.078;2022-07-29T15:56:32;29.90;99.90
10083;DHT22;5080;48.528;8.078;2022-07-29T15:59:03;29.80;99.90